Time;durP1;ratioP1;P1;durP2;ratioP2;P2;SDS_P1;SDS_P2;PMS_P1;PMS_P2;Temp;Humidity;BMP_temperature;BMP_pressure;BME280_temperature;BME280_humidity;BME280_pressure;Samples;Min_cycle;Max_cycle;Signal;HPM_P1;HPM_P2
2022/02/17 00:02:05;;;;;;;0.30;0.30;;;12.00;99.90;;;;;;4915174;28;20085;-87
2022/02/17 00:04:31;;;;;;;5.15;0.90;;;12.00;99.90;;;;;;4917399;28;20496;-87
2022/02/17 00:06:56;;;;;;;0.50;0.40;;;12.00;99.90;;;;;;4915785;28;20416;-86
2022/02/17 00:09:22;;;;;;;1.77;0.77;;;12.00;99.90;;;;;;4906928;28;20385;-87
2022/02/17 00:11:47;;;;;;;2.35;0.90;;;11.90;99.90;;;;;;4908612;28;20174;-87
2022/02/17 00:14:13;;;;;;;1.80;1.20;;;12.00;99.90;;;;;;4910645;28;20093;-85
2022/02/17 00:16:38;;;;;;;2.03;0.77;;;12.00;99.90;;;;;;4916056;28;20035;-86
2022/02/17 00:19:04;;;;;;;1.33;0.60;;;11.90;99.90;;;;;;4909058;28;20369;-86
2022/02/17 00:21:29;;;;;;;4.07;1.05;;;12.00;99.90;;;;;;4916593;28;20425;-88
2022/02/17 00:23:58;;;;;;;4.97;1.05;;;11.80;99.90;;;;;;4918207;28;20027;-87
2022/02/17 00:26:23;;;;;;;0.73;0.60;;;11.70;99.90;;;;;;4917361;28;20185;-88
2022/02/17 00:28:49;;;;;;;0.90;0.60;;;11.70;99.90;;;;;;4909570;28;20535;-88
2022/02/17 00:31:15;;;;;;;1.40;0.63;;;11.60;99.90;;;;;;4920328;28;20042;-87
2022/02/17 00:34:04;;;;;;;0.63;0.63;;;11.60;99.90;;;;;;4926760;28;20134;-88
2022/02/17 00:36:30;;;;;;;2.85;0.80;;;11.60;99.90;;;;;;4943289;28;20061;-89
2022/02/17 00:38:56;;;;;;;2.58;0.88;;;11.60;99.90;;;;;;4925268;28;20035;-87
2022/02/17 00:41:33;;;;;;;3.17;0.88;;;11.60;99.90;;;;;;4910617;28;20094;-88
2022/02/17 00:43:59;;;;;;;4.78;0.90;;;11.50;99.90;;;;;;4927245;28;20054;-88
2022/02/17 00:46:27;;;;;;;3.60;1.00;;;11.60;99.90;;;;;;4921769;28;20463;-88
2022/02/17 00:48:53;;;;;;;4.93;1.20;;;11.40;99.90;;;;;;4913038;28;20111;-89
2022/02/17 00:51:18;;;;;;;2.90;0.40;;;11.40;99.90;;;;;;4914563;28;20090;-89
2022/02/17 00:53:44;;;;;;;4.03;1.25;;;11.40;99.90;;;;;;4932628;28;20027;-89
2022/02/17 00:56:12;;;;;;;1.77;0.70;;;11.40;99.90;;;;;;4908051;28;20039;-88
2022/02/17 00:58:45;;;;;;;5.60;0.85;;;11.50;99.90;;;;;;4910233;28;20419;-89
2022/02/17 01:01:11;;;;;;;2.13;0.70;;;11.30;99.90;;;;;;4913906;28;20058;-89
2022/02/17 01:03:36;;;;;;;3.33;1.17;;;11.30;99.90;;;;;;4912653;28;20031;-88
2022/02/17 01:06:02;;;;;;;2.20;0.95;;;11.30;99.90;;;;;;4923585;28;20039;-88
2022/02/17 01:08:28;;;;;;;3.47;1.02;;;11.20;99.90;;;;;;4918748;28;20049;-88
2022/02/17 01:10:54;;;;;;;2.88;1.02;;;11.30;99.90;;;;;;4929508;28;20110;-89
2022/02/17 01:13:22;;;;;;;2.38;1.15;;;11.20;99.90;;;;;;4918015;28;20050;-88
2022/02/17 01:15:48;;;;;;;7.85;1.45;;;11.20;99.90;;;;;;4913730;28;20035;-88
2022/02/17 01:18:16;;;;;;;7.25;1.30;;;11.20;99.90;;;;;;4898400;28;20039;-88
2022/02/17 01:20:42;;;;;;;1.83;1.15;;;11.20;99.90;;;;;;4931060;28;20066;-87
2022/02/17 01:23:08;;;;;;;2.33;1.52;;;11.10;99.90;;;;;;4921803;28;20542;-88
2022/02/17 01:25:34;;;;;;;3.97;1.60;;;11.20;99.90;;;;;;4907432;28;20035;-88
2022/02/17 01:28:00;;;;;;;2.45;0.95;;;11.10;99.90;;;;;;4937274;28;20037;-88
2022/02/17 01:31:09;;;;;;;3.50;1.27;;;11.10;99.90;;;;;;4907438;28;20486;-88
2022/02/17 01:33:36;;;;;;;4.07;1.48;;;11.20;99.90;;;;;;4941318;28;20045;-89
2022/02/17 01:36:06;;;;;;;5.60;1.50;;;11.10;99.90;;;;;;4911485;28;20035;-88
2022/02/17 01:38:41;;;;;;;3.13;1.10;;;11.10;99.90;;;;;;4914894;28;20044;-89
2022/02/17 01:41:08;;;;;;;1.23;0.67;;;11.00;99.90;;;;;;4927139;28;20121;-88
2022/02/17 01:43:35;;;;;;;5.53;1.50;;;11.10;99.90;;;;;;4921226;28;20386;-88
2022/02/17 01:46:01;;;;;;;4.35;1.33;;;11.00;99.90;;;;;;4924213;28;20034;-89
2022/02/17 01:48:27;;;;;;;5.82;1.58;;;11.00;99.90;;;;;;4913582;29;20039;-89
2022/02/17 01:50:53;;;;;;;7.07;2.20;;;10.90;99.90;;;;;;4914876;28;20039;-89
2022/02/17 01:53:19;;;;;;;6.15;1.58;;;10.90;99.90;;;;;;4913741;28;20447;-87
2022/02/17 01:55:47;;;;;;;9.10;2.17;;;10.90;99.90;;;;;;4905098;28;20043;-88
2022/02/17 01:58:15;;;;;;;4.05;1.25;;;10.70;99.90;;;;;;4905514;28;20035;-87
2022/02/17 02:00:42;;;;;;;4.75;1.52;;;10.80;99.90;;;;;;4905707;28;20401;-88
2022/02/17 02:03:08;;;;;;;10.52;2.88;;;10.80;99.90;;;;;;4909344;28;20106;-88
2022/02/17 02:05:34;;;;;;;8.63;2.00;;;10.70;99.90;;;;;;4916113;28;20043;-88
2022/02/17 02:08:00;;;;;;;7.35;2.25;;;10.70;99.90;;;;;;4900477;28;20039;-88
2022/02/17 02:10:26;;;;;;;9.07;2.17;;;10.70;99.90;;;;;;4910994;28;20063;-88
2022/02/17 02:12:56;;;;;;;4.18;2.00;;;10.60;99.90;;;;;;4908901;28;20031;-88
2022/02/17 02:15:22;;;;;;;5.03;1.20;;;10.60;99.90;;;;;;4917008;28;20035;-87
2022/02/17 02:17:48;;;;;;;9.40;2.42;;;10.50;99.90;;;;;;4917858;28;20475;-88
2022/02/17 02:20:16;;;;;;;13.15;2.30;;;10.50;99.90;;;;;;4925626;28;20046;-87
2022/02/17 02:22:41;;;;;;;6.93;2.55;;;10.40;99.90;;;;;;4915776;28;20027;-87
2022/02/17 02:25:10;;;;;;;7.85;1.48;;;10.40;99.90;;;;;;4917778;28;20050;-86
2022/02/17 02:27:35;;;;;;;8.73;2.30;;;10.40;99.90;;;;;;4926167;28;20030;-87
2022/02/17 02:30:01;;;;;;;10.27;2.42;;;10.40;99.90;;;;;;4932326;28;20263;-89
2022/02/17 02:32:27;;;;;;;15.38;1.90;;;10.30;99.90;;;;;;4907389;28;20383;-89
2022/02/17 02:34:52;;;;;;;7.35;2.10;;;10.40;99.90;;;;;;4924236;28;20097;-88
2022/02/17 02:37:18;;;;;;;8.20;2.47;;;10.40;99.90;;;;;;4919867;28;20495;-88
2022/02/17 02:39:44;;;;;;;11.23;3.22;;;10.40;99.90;;;;;;4925826;28;20451;-88
2022/02/17 02:42:09;;;;;;;15.80;3.50;;;10.30;99.90;;;;;;4920349;28;20130;-88
2022/02/17 02:44:35;;;;;;;10.75;2.55;;;10.30;99.90;;;;;;4917193;28;20141;-89
2022/02/17 02:47:01;;;;;;;15.02;3.53;;;10.30;99.90;;;;;;4918460;28;20034;-88
2022/02/17 02:49:26;;;;;;;7.80;1.92;;;10.20;99.90;;;;;;4915156;28;20042;-89
2022/02/17 02:51:52;;;;;;;8.55;2.30;;;10.20;99.90;;;;;;4909210;28;20035;-88
2022/02/17 02:54:17;;;;;;;7.20;2.13;;;10.20;99.90;;;;;;4916543;28;20062;-87
2022/02/17 02:56:43;;;;;;;9.27;2.42;;;10.20;99.90;;;;;;4922629;28;20050;-86
2022/02/17 02:59:09;;;;;;;10.98;2.15;;;10.10;99.90;;;;;;4915473;28;20042;-85
2022/02/17 03:02:01;;;;;;;8.88;1.73;;;10.00;99.90;;;;;;4910376;28;20035;-86
2022/02/17 03:04:27;;;;;;;16.98;2.70;;;10.00;99.90;;;;;;4940925;28;20468;-85
2022/02/17 03:06:52;;;;;;;15.18;2.47;;;9.90;99.90;;;;;;4915473;28;20126;-85
2022/02/17 03:09:18;;;;;;;8.70;2.35;;;9.90;99.90;;;;;;4920920;28;20078;-86
2022/02/17 03:11:43;;;;;;;9.70;1.80;;;9.80;99.90;;;;;;4917600;28;20027;-86
2022/02/17 03:14:09;;;;;;;14.52;1.92;;;10.00;99.90;;;;;;4907449;28;20408;-86
2022/02/17 03:16:35;;;;;;;8.85;2.40;;;9.90;99.90;;;;;;4921974;28;20462;-89
2022/02/17 03:19:01;;;;;;;9.32;2.60;;;9.90;99.90;;;;;;4919320;28;20129;-91
2022/02/17 03:21:26;;;;;;;16.40;2.78;;;9.90;99.90;;;;;;4926531;28;20043;-91
2022/02/17 03:23:52;;;;;;;13.52;2.80;;;9.80;99.90;;;;;;4927662;28;20027;-91
2022/02/17 03:26:17;;;;;;;8.48;2.30;;;9.90;99.90;;;;;;4915076;28;20121;-89
2022/02/17 03:28:43;;;;;;;21.38;3.55;;;9.80;99.90;;;;;;4910473;28;20579;-90
2022/02/17 03:31:08;;;;;;;15.80;2.42;;;9.70;99.90;;;;;;4915778;28;20072;-89
2022/02/17 03:33:34;;;;;;;9.88;2.58;;;9.80;99.90;;;;;;4921621;28;20035;-90
2022/02/17 03:36:00;;;;;;;14.50;3.05;;;9.70;99.90;;;;;;4921139;28;20146;-90
2022/02/17 03:38:25;;;;;;;19.25;3.75;;;9.80;99.90;;;;;;4916987;28;20042;-88
2022/02/17 03:40:51;;;;;;;16.77;2.97;;;9.80;99.90;;;;;;4916873;28;20146;-90
2022/02/17 03:43:17;;;;;;;11.60;2.58;;;9.80;99.90;;;;;;4920448;28;20034;-90
2022/02/17 03:45:43;;;;;;;8.00;1.70;;;9.80;99.90;;;;;;4917268;28;20401;-90
2022/02/17 03:48:09;;;;;;;11.23;2.13;;;9.80;99.90;;;;;;4919964;28;20106;-91
2022/02/17 03:50:34;;;;;;;13.80;2.58;;;9.70;99.90;;;;;;4925714;28;20042;-86
2022/02/17 03:53:00;;;;;;;16.90;2.63;;;9.80;99.90;;;;;;4917686;28;20078;-86
2022/02/17 03:55:26;;;;;;;20.10;2.90;;;9.70;99.90;;;;;;4912931;28;20033;-86
2022/02/17 03:57:51;;;;;;;6.18;2.65;;;9.70;99.90;;;;;;4910072;28;20028;-86
2022/02/17 04:00:17;;;;;;;8.95;2.22;;;9.80;99.90;;;;;;4911256;28;20042;-86
2022/02/17 04:02:42;;;;;;;15.20;3.20;;;9.80;99.90;;;;;;4925096;28;20761;-85
2022/02/17 04:05:08;;;;;;;16.27;3.05;;;9.70;99.90;;;;;;4925610;28;20042;-86
2022/02/17 04:07:35;;;;;;;17.85;3.67;;;9.70;99.90;;;;;;4916405;28;20039;-86
2022/02/17 04:10:01;;;;;;;12.80;3.55;;;9.80;99.90;;;;;;4922530;28;20071;-86
2022/02/17 04:12:26;;;;;;;13.23;2.10;;;9.80;99.90;;;;;;4916269;28;20066;-85
2022/02/17 04:14:52;;;;;;;18.02;2.40;;;9.80;99.90;;;;;;4919064;28;20034;-85
2022/02/17 04:17:18;;;;;;;15.73;2.33;;;9.80;99.90;;;;;;4914718;28;20047;-85
2022/02/17 04:19:52;;;;;;;11.73;2.70;;;9.70;99.90;;;;;;4917588;28;20042;-86
2022/02/17 04:22:18;;;;;;;16.40;2.65;;;9.80;99.90;;;;;;4899548;28;20070;-85
2022/02/17 04:24:43;;;;;;;13.07;2.75;;;9.70;99.90;;;;;;4910786;28;20764;-86
2022/02/17 04:27:09;;;;;;;12.98;2.08;;;9.70;99.90;;;;;;4929646;28;20042;-86
2022/02/17 04:29:54;;;;;;;12.07;2.13;;;9.70;99.90;;;;;;4924856;28;20461;-86
2022/02/17 04:32:20;;;;;;;18.90;3.28;;;9.60;99.90;;;;;;4933303;28;20118;-85
2022/02/17 04:34:45;;;;;;;13.85;2.80;;;9.60;99.90;;;;;;4909482;28;20122;-86
2022/02/17 04:37:11;;;;;;;16.92;4.40;;;9.60;99.90;;;;;;4930716;28;20046;-85
2022/02/17 04:39:36;;;;;;;12.70;3.25;;;9.60;99.90;;;;;;4910916;28;20035;-86
2022/02/17 04:42:21;;;;;;;26.05;3.13;;;9.60;99.90;;;;;;4915508;28;20459;-85
2022/02/17 04:44:47;;;;;;;16.00;3.00;;;9.50;99.90;;;;;;4918483;28;20663;-86
2022/02/17 04:47:13;;;;;;;22.50;4.20;;;9.60;99.90;;;;;;4924349;28;20039;-85
2022/02/17 04:49:38;;;;;;;21.83;3.67;;;9.60;99.90;;;;;;4922161;28;20054;-86
2022/02/17 04:52:05;;;;;;;18.85;3.45;;;9.50;99.90;;;;;;4929220;28;20468;-85
2022/02/17 04:54:30;;;;;;;21.70;3.97;;;9.50;99.90;;;;;;4928491;28;20035;-86
2022/02/17 04:56:56;;;;;;;21.45;3.30;;;9.50;99.90;;;;;;4912728;28;20439;-86
2022/02/17 04:59:22;;;;;;;20.67;2.75;;;9.50;99.90;;;;;;4922784;28;20030;-85
2022/02/17 05:01:47;;;;;;;20.05;3.47;;;9.50;99.90;;;;;;4900543;28;20059;-85
2022/02/17 05:04:13;;;;;;;15.40;2.92;;;9.40;99.90;;;;;;4915802;28;20059;-85
2022/02/17 05:06:38;;;;;;;11.15;2.22;;;9.50;99.90;;;;;;4917417;28;20052;-85
2022/02/17 05:09:04;;;;;;;11.48;1.92;;;9.50;99.90;;;;;;4923048;28;20474;-86
2022/02/17 05:11:29;;;;;;;19.20;2.60;;;9.50;99.90;;;;;;4907357;28;20027;-85
2022/02/17 05:13:55;;;;;;;13.90;2.15;;;9.50;99.90;;;;;;4928224;28;20038;-86
2022/02/17 05:16:34;;;;;;;27.73;4.38;;;9.50;99.90;;;;;;4879227;28;20507;-86
2022/02/17 05:18:59;;;;;;;20.05;3.35;;;9.60;99.90;;;;;;4946219;28;20030;-85
2022/02/17 05:21:25;;;;;;;20.17;3.22;;;9.50;99.90;;;;;;4920839;28;20046;-85
2022/02/17 05:23:51;;;;;;;19.80;3.17;;;9.50;99.90;;;;;;4905427;28;20077;-84
2022/02/17 05:26:24;;;;;;;14.98;2.95;;;9.40;99.90;;;;;;4930575;28;20124;-85
2022/02/17 05:28:49;;;;;;;15.25;2.10;;;9.60;99.90;;;;;;4907457;28;20047;-85
2022/02/17 05:31:15;;;;;;;15.57;2.05;;;9.60;99.90;;;;;;4912479;28;20035;-85
2022/02/17 05:33:40;;;;;;;12.15;3.85;;;9.50;99.90;;;;;;4914469;28;20085;-85
2022/02/17 05:36:06;;;;;;;17.83;3.15;;;9.40;99.90;;;;;;4917994;28;20518;-85
2022/02/17 05:38:34;;;;;;;20.73;3.85;;;9.40;99.90;;;;;;4916716;28;20055;-86
2022/02/17 05:41:00;;;;;;;16.98;4.55;;;9.40;99.90;;;;;;4908251;28;20101;-85
2022/02/17 05:43:26;;;;;;;20.80;2.97;;;9.40;99.90;;;;;;4915287;28;20027;-85
2022/02/17 05:45:51;;;;;;;14.80;3.53;;;9.40;99.90;;;;;;4919220;28;20452;-85
2022/02/17 05:48:17;;;;;;;7.75;1.65;;;9.50;99.90;;;;;;4914464;28;20105;-85
2022/02/17 05:50:45;;;;;;;27.13;4.70;;;9.50;99.90;;;;;;4908822;28;20034;-85
2022/02/17 05:53:12;;;;;;;20.05;3.58;;;9.40;99.90;;;;;;4926686;28;20146;-85
2022/02/17 05:55:37;;;;;;;22.33;4.28;;;9.50;99.90;;;;;;4909671;28;20027;-86
2022/02/17 05:58:03;;;;;;;25.08;4.28;;;9.40;99.90;;;;;;4918572;28;20031;-85
2022/02/17 06:00:29;;;;;;;27.30;4.38;;;9.50;99.90;;;;;;4911267;28;20039;-85
2022/02/17 06:02:54;;;;;;;24.25;6.05;;;9.40;99.90;;;;;;4919749;28;20042;-86
2022/02/17 06:05:20;;;;;;;20.80;3.50;;;9.40;99.90;;;;;;4919085;28;20436;-85
2022/02/17 06:07:45;;;;;;;22.50;3.88;;;9.40;99.90;;;;;;4916453;28;20399;-85
2022/02/17 06:10:11;;;;;;;18.75;3.15;;;9.20;99.90;;;;;;4915061;28;20050;-86
2022/02/17 06:12:44;;;;;;;18.73;3.00;;;9.20;99.90;;;;;;4916850;28;20035;-86
2022/02/17 06:15:10;;;;;;;18.45;3.75;;;9.30;99.90;;;;;;4933226;28;20043;-85
2022/02/17 06:17:36;;;;;;;22.95;3.72;;;9.40;99.90;;;;;;4917595;28;20408;-86
2022/02/17 06:20:03;;;;;;;20.17;2.75;;;9.30;99.90;;;;;;4932415;28;20026;-85
2022/02/17 06:22:29;;;;;;;14.85;2.65;;;9.40;99.90;;;;;;4914998;28;20118;-85
2022/02/17 06:24:55;;;;;;;16.95;3.53;;;9.30;99.90;;;;;;4905696;28;20039;-86
2022/02/17 06:27:20;;;;;;;19.17;3.17;;;9.40;99.90;;;;;;4919061;28;20043;-86
2022/02/17 06:29:46;;;;;;;23.52;3.60;;;9.40;99.90;;;;;;4923903;28;20031;-86
2022/02/17 06:32:12;;;;;;;14.52;2.97;;;9.40;99.90;;;;;;4910895;28;20038;-86
2022/02/17 06:34:37;;;;;;;19.85;3.05;;;9.40;99.90;;;;;;4917109;28;20491;-86
2022/02/17 06:37:03;;;;;;;19.10;2.90;;;9.40;99.90;;;;;;4916927;28;20406;-86
2022/02/17 06:39:28;;;;;;;16.17;2.92;;;9.40;99.90;;;;;;4915055;28;20035;-86
2022/02/17 06:41:54;;;;;;;18.48;3.30;;;9.30;99.90;;;;;;4934886;28;20415;-86
2022/02/17 06:44:20;;;;;;;17.45;2.67;;;9.30;99.90;;;;;;4917579;28;20055;-88
2022/02/17 06:46:45;;;;;;;28.73;4.80;;;9.40;99.90;;;;;;4920261;28;20046;-86
2022/02/17 06:49:11;;;;;;;21.65;4.75;;;9.30;99.90;;;;;;4929625;28;20038;-86
2022/02/17 06:51:36;;;;;;;21.55;3.55;;;9.30;99.90;;;;;;4915159;28;20031;-86
2022/02/17 06:54:02;;;;;;;22.08;3.03;;;9.30;99.90;;;;;;4915782;28;20043;-86
2022/02/17 06:56:27;;;;;;;16.15;3.05;;;9.20;99.90;;;;;;4915067;28;20069;-86
2022/02/17 06:58:53;;;;;;;33.45;4.65;;;9.20;99.90;;;;;;4913563;28;20039;-86
2022/02/17 07:01:23;;;;;;;21.42;2.85;;;9.20;99.90;;;;;;4908173;28;20113;-86
2022/02/17 07:03:49;;;;;;;26.80;4.13;;;9.20;99.90;;;;;;4907418;28;20034;-86
2022/02/17 07:06:15;;;;;;;21.25;3.08;;;9.10;99.90;;;;;;4917322;28;20036;-85
2022/02/17 07:08:43;;;;;;;17.00;3.83;;;9.20;99.90;;;;;;4915389;28;20042;-86
2022/02/17 07:11:09;;;;;;;16.17;3.38;;;9.10;99.90;;;;;;4931981;28;20207;-85
2022/02/17 07:13:35;;;;;;;17.50;2.85;;;9.20;99.90;;;;;;4910831;28;20050;-85
2022/02/17 07:16:00;;;;;;;23.00;3.20;;;9.20;99.90;;;;;;4918511;28;20117;-86
2022/02/17 07:18:26;;;;;;;16.50;2.72;;;9.10;99.90;;;;;;4915048;28;20080;-86
2022/02/17 07:20:54;;;;;;;10.98;2.22;;;9.20;99.90;;;;;;4911429;28;20035;-86
2022/02/17 07:23:20;;;;;;;15.05;2.60;;;9.10;99.90;;;;;;4914473;28;20124;-85
2022/02/17 07:25:46;;;;;;;17.50;3.72;;;9.10;99.90;;;;;;4913578;28;20024;-86
2022/02/17 07:28:12;;;;;;;11.63;2.85;;;9.10;99.90;;;;;;4916125;28;20029;-85
2022/02/17 07:30:38;;;;;;;17.00;3.05;;;9.20;99.90;;;;;;4921827;28;20519;-86
2022/02/17 07:33:04;;;;;;;16.08;2.47;;;9.10;99.90;;;;;;4914289;28;20095;-86
2022/02/17 07:35:30;;;;;;;12.85;1.90;;;9.10;99.90;;;;;;4927622;28;20097;-86
2022/02/17 07:37:56;;;;;;;18.73;3.97;;;9.20;99.90;;;;;;4924616;28;20027;-86
2022/02/17 07:40:21;;;;;;;21.27;2.63;;;9.20;99.90;;;;;;4914104;28;20034;-86
2022/02/17 07:42:47;;;;;;;13.15;2.67;;;9.10;99.90;;;;;;4916586;28;20031;-85
2022/02/17 07:45:13;;;;;;;15.65;2.72;;;9.20;99.90;;;;;;4914999;28;20487;-86
2022/02/17 07:47:45;;;;;;;15.10;2.58;;;9.10;99.90;;;;;;4920508;28;20513;-87
2022/02/17 07:50:12;;;;;;;15.32;2.22;;;9.20;99.90;;;;;;4905455;28;20471;-86
2022/02/17 07:52:38;;;;;;;10.48;1.85;;;9.20;99.90;;;;;;4914114;28;20067;-86
2022/02/17 07:55:04;;;;;;;12.88;2.55;;;9.10;99.90;;;;;;4928681;28;20035;-87
2022/02/17 07:57:30;;;;;;;17.05;2.63;;;9.20;99.90;;;;;;4907655;28;20546;-87
2022/02/17 07:59:55;;;;;;;14.13;1.92;;;9.20;99.90;;;;;;4917870;28;20023;-85
2022/02/17 08:02:21;;;;;;;17.27;4.35;;;9.10;99.90;;;;;;4919423;28;20491;-86
2022/02/17 08:04:47;;;;;;;11.00;3.47;;;9.10;99.90;;;;;;4913872;28;20031;-86
2022/02/17 08:07:12;;;;;;;12.63;2.45;;;9.10;99.90;;;;;;4906219;28;20031;-86
2022/02/17 08:09:38;;;;;;;27.85;3.97;;;9.10;99.90;;;;;;4918078;28;20039;-86
2022/02/17 08:12:04;;;;;;;12.13;2.30;;;9.10;99.90;;;;;;4912293;28;20066;-86
2022/02/17 08:14:30;;;;;;;16.27;3.72;;;9.10;99.90;;;;;;4912252;28;20054;-86
2022/02/17 08:16:55;;;;;;;14.68;2.42;;;9.10;99.90;;;;;;4915509;28;20480;-86
2022/02/17 08:19:21;;;;;;;11.10;2.08;;;9.10;99.90;;;;;;4926666;28;20031;-86
2022/02/17 08:21:46;;;;;;;8.80;1.90;;;9.10;99.90;;;;;;4923532;28;20038;-86
2022/02/17 08:24:13;;;;;;;9.40;1.80;;;9.20;99.90;;;;;;4923044;28;20039;-86
2022/02/17 08:26:39;;;;;;;18.10;3.13;;;9.20;99.90;;;;;;4925831;28;20634;-86
2022/02/17 08:29:06;;;;;;;11.15;3.10;;;9.10;99.90;;;;;;4915056;28;20576;-86
2022/02/17 08:31:32;;;;;;;17.13;3.10;;;9.10;99.90;;;;;;4910598;28;20041;-86
2022/02/17 08:34:03;;;;;;;11.60;1.92;;;9.10;99.90;;;;;;4907910;28;20039;-86
2022/02/17 08:36:29;;;;;;;12.15;2.50;;;9.20;99.90;;;;;;4919318;28;20042;-86
2022/02/17 08:38:54;;;;;;;13.77;2.50;;;9.20;99.90;;;;;;4916007;28;20038;-86
2022/02/17 08:41:20;;;;;;;10.55;3.05;;;9.20;99.90;;;;;;4905726;28;20118;-87
2022/02/17 08:43:46;;;;;;;25.55;3.75;;;9.30;99.90;;;;;;4932439;28;20116;-86
2022/02/17 08:46:11;;;;;;;22.23;3.60;;;9.40;99.90;;;;;;4914346;28;20031;-86
2022/02/17 08:48:37;;;;;;;21.40;3.88;;;9.30;99.90;;;;;;4919761;28;20042;-86
2022/02/17 08:51:02;;;;;;;12.13;2.08;;;9.20;99.90;;;;;;4934025;28;20018;-86
2022/02/17 08:53:28;;;;;;;18.20;3.72;;;9.30;99.90;;;;;;4898912;28;20042;-87
2022/02/17 08:55:54;;;;;;;12.68;2.03;;;9.20;99.90;;;;;;4936509;28;20035;-87
2022/02/17 08:58:26;;;;;;;17.30;3.85;;;9.30;99.90;;;;;;4925044;28;20511;-87
2022/02/17 09:00:51;;;;;;;10.70;1.85;;;9.30;99.90;;;;;;4932537;28;20049;-88
2022/02/17 09:03:25;;;;;;;13.55;2.45;;;9.20;99.90;;;;;;4892271;28;20034;-88
2022/02/17 09:05:56;;;;;;;20.48;3.05;;;9.20;99.90;;;;;;4897934;28;20660;-88
2022/02/17 09:08:21;;;;;;;16.95;2.72;;;9.20;99.90;;;;;;4921986;28;20506;-88
2022/02/17 09:10:56;;;;;;;13.57;2.92;;;9.30;99.90;;;;;;4912126;28;20027;-89
2022/02/17 09:13:28;;;;;;;14.60;2.15;;;9.40;99.90;;;;;;4931382;28;20027;-88
2022/02/17 09:16:05;;;;;;;12.02;2.45;;;9.40;99.90;;;;;;4913720;28;20026;-88
2022/02/17 09:18:31;;;;;;;11.25;2.22;;;9.50;99.90;;;;;;4902424;28;20481;-86
2022/02/17 09:20:56;;;;;;;7.97;1.65;;;9.50;99.90;;;;;;4902187;28;20093;-88
2022/02/17 09:26:11;;;;;;;6.40;1.50;;;9.50;99.90;;;;;;4894892;29;20054;-88
2022/02/17 09:28:39;;;;;;;9.27;2.13;;;9.30;99.90;;;;;;4895325;28;20039;-87
2022/02/17 09:31:34;;;;;;;13.23;2.05;;;9.20;99.90;;;;;;4895194;28;20043;-87
2022/02/17 09:34:01;;;;;;;13.73;2.70;;;9.20;99.90;;;;;;4898974;28;20053;-87
2022/02/17 09:36:42;;;;;;;8.98;1.95;;;9.20;99.90;;;;;;4921471;28;20099;-87
2022/02/17 09:39:07;;;;;;;13.75;2.08;;;9.30;99.90;;;;;;4915771;28;20614;-88
2022/02/17 09:41:33;;;;;;;9.68;2.08;;;9.40;99.90;;;;;;4904715;28;20051;-88
2022/02/17 09:44:49;;;;;;;18.08;3.00;;;9.40;99.90;;;;;;4918034;28;20097;-86
2022/02/17 09:47:25;;;;;;;7.28;1.83;;;9.40;99.90;;;;;;4939677;28;20046;-87
2022/02/17 09:50:01;;;;;;;18.08;2.00;;;9.60;99.90;;;;;;4901050;28;20451;-86
2022/02/17 09:53:01;;;;;;;12.18;2.35;;;9.60;99.90;;;;;;4876173;28;20476;-87
2022/02/17 09:55:27;;;;;;;8.25;1.38;;;9.70;99.90;;;;;;4917228;28;20039;-87
2022/02/17 09:57:53;;;;;;;10.43;2.53;;;9.90;99.90;;;;;;4902855;28;20082;-87
2022/02/17 10:00:35;;;;;;;6.68;1.35;;;9.90;99.90;;;;;;4916922;28;20405;-87
2022/02/17 10:03:28;;;;;;;12.88;2.00;;;10.00;99.90;;;;;;4938088;28;20138;-87
2022/02/17 10:06:16;;;;;;;10.55;1.88;;;10.00;99.90;;;;;;4912807;28;20070;-87
2022/02/17 10:08:51;;;;;;;10.82;2.50;;;10.10;99.90;;;;;;4915009;28;20047;-87
2022/02/17 10:11:35;;;;;;;10.52;2.05;;;10.10;99.90;;;;;;4937283;28;20035;-87
2022/02/17 10:14:12;;;;;;;11.20;1.95;;;10.20;99.90;;;;;;4908971;28;20027;-87
2022/02/17 10:16:56;;;;;;;10.65;1.83;;;10.20;99.90;;;;;;4923884;28;20431;-88
2022/02/17 10:19:33;;;;;;;13.10;2.08;;;10.30;99.90;;;;;;4927283;28;20031;-88
2022/02/17 10:22:25;;;;;;;11.88;2.42;;;10.30;99.90;;;;;;4927243;28;20065;-88
2022/02/17 10:24:53;;;;;;;8.90;1.92;;;10.30;99.90;;;;;;4905994;28;20073;-87
2022/02/17 10:27:26;;;;;;;11.00;2.28;;;10.40;99.90;;;;;;4915961;28;20058;-88
2022/02/17 10:29:59;;;;;;;9.88;2.08;;;10.40;99.90;;;;;;4938262;28;20050;-88
2022/02/17 10:32:39;;;;;;;14.95;2.08;;;10.40;99.90;;;;;;4919493;28;20036;-88
2022/02/17 10:35:09;;;;;;;11.98;2.25;;;10.40;99.90;;;;;;4907675;28;20513;-88
2022/02/17 10:38:12;;;;;;;10.00;1.45;;;10.30;99.90;;;;;;4932240;28;20059;-88
2022/02/17 10:40:38;;;;;;;9.85;1.85;;;10.20;99.90;;;;;;4905826;28;20035;-88
2022/02/17 10:43:16;;;;;;;20.95;2.22;;;10.10;99.90;;;;;;4912251;28;20042;-88
2022/02/17 10:45:50;;;;;;;4.90;1.73;;;10.10;99.90;;;;;;4912028;28;20039;-88
2022/02/17 10:48:18;;;;;;;7.45;0.77;;;10.10;99.90;;;;;;4917515;28;20069;-88
2022/02/17 10:50:46;;;;;;;7.38;1.63;;;10.20;99.90;;;;;;4896709;28;20210;-88
2022/02/17 10:53:22;;;;;;;5.00;1.20;;;10.30;99.90;;;;;;4903820;28;20030;-88
2022/02/17 10:56:00;;;;;;;;;;;10.30;99.90;;;;;;4916868;28;20286;-87
2022/02/17 10:59:03;;;;;;;5.57;1.08;;;10.30;99.90;;;;;;4931000;28;19914;-87
2022/02/17 11:01:31;;;;;;;9.30;1.17;;;10.30;99.90;;;;;;4911198;28;20039;-87
2022/02/17 11:03:57;;;;;;;12.60;1.13;;;10.20;99.90;;;;;;4918147;28;20035;-86
2022/02/17 11:06:23;;;;;;;11.35;1.30;;;10.30;99.90;;;;;;4897193;28;20035;-88
2022/02/17 11:08:59;;;;;;;5.32;1.17;;;10.20;99.90;;;;;;4911748;28;20051;-87
2022/02/17 11:11:27;;;;;;;9.32;1.10;;;10.20;99.90;;;;;;4914703;29;20050;-88
2022/02/17 11:14:25;;;;;;;6.97;1.10;;;10.30;99.90;;;;;;4912129;28;20446;-88
2022/02/17 11:16:51;;;;;;;1.42;0.63;;;10.40;99.90;;;;;;4940793;28;20049;-87
2022/02/17 11:19:19;;;;;;;7.22;1.42;;;10.60;99.90;;;;;;4908534;28;20035;-87
2022/02/17 11:21:47;;;;;;;6.57;1.40;;;10.50;99.90;;;;;;4916658;28;20043;-88
2022/02/17 11:24:16;;;;;;;4.88;1.25;;;10.70;99.90;;;;;;4915980;28;20031;-87
2022/02/17 11:27:00;;;;;;;7.10;1.30;;;10.60;99.90;;;;;;4894030;28;20043;-88
2022/02/17 11:30:26;;;;;;;13.55;2.00;;;10.80;99.90;;;;;;4908811;28;20047;-88
2022/02/17 11:33:32;;;;;;;4.97;1.27;;;10.70;99.90;;;;;;4897778;29;20088;-87
2022/02/17 11:36:30;;;;;;;5.22;0.80;;;10.80;99.90;;;;;;4927532;28;20495;-88
2022/02/17 11:39:06;;;;;;;10.80;1.95;;;11.10;99.90;;;;;;4904937;28;20118;-88
2022/02/17 11:41:36;;;;;;;3.88;0.70;;;11.10;99.90;;;;;;4926586;28;20050;-88
2022/02/17 11:44:13;;;;;;;7.13;1.08;;;11.30;99.90;;;;;;4905882;28;20057;-88
2022/02/17 11:47:06;;;;;;;8.65;1.58;;;11.50;99.90;;;;;;4901434;29;20031;-88
2022/02/17 11:49:32;;;;;;;9.43;1.40;;;11.50;99.90;;;;;;4930417;28;20682;-87
2022/02/17 11:52:21;;;;;;;12.27;2.05;;;11.60;99.90;;;;;;4941157;28;20346;-88
2022/02/17 11:55:20;;;;;;;10.57;2.45;;;11.40;99.90;;;;;;4928512;28;20130;-88
2022/02/17 11:58:21;;;;;;;7.82;1.10;;;11.50;99.90;;;;;;4911979;28;20041;-86
2022/02/17 12:00:47;;;;;;;6.28;1.73;;;11.40;99.90;;;;;;4927293;28;20035;-88
2022/02/17 12:03:13;;;;;;;10.90;2.17;;;11.30;99.90;;;;;;4906763;28;20034;-87
2022/02/17 12:05:40;;;;;;;8.25;1.70;;;11.20;99.90;;;;;;4919114;28;20039;-87
2022/02/17 12:08:29;;;;;;;12.00;1.48;;;11.40;99.90;;;;;;4938397;28;20047;-87
2022/02/17 12:15:04;;;;;;;9.60;1.25;;;11.20;99.90;;;;;;4850153;29;20033;-87
2022/02/17 12:17:31;;;;;;;8.90;2.03;;;11.30;99.90;;;;;;4919295;28;20396;-87
2022/02/17 12:20:15;;;;;;;4.10;1.10;;;10.90;99.90;;;;;;4239996;28;9999803;-87
2022/02/17 12:23:36;;;;;;;6.18;1.25;;;11.00;99.90;;;;;;4905550;28;20460;-86
2022/02/17 12:26:39;;;;;;;4.05;1.02;;;10.80;99.90;;;;;;4907778;28;20057;-87
2022/02/17 12:33:19;;;;;;;;;;;;;;;;;;;;;
2022/02/17 12:36:13;;;;;;;6.75;1.33;;;10.80;99.90;;;;;;4903231;28;20141;-86
2022/02/17 12:38:39;;;;;;;3.65;1.10;;;10.50;99.90;;;;;;4945433;28;20126;-87
2022/02/17 12:41:17;;;;;;;8.77;1.52;;;10.50;99.90;;;;;;4918272;28;20027;-87
2022/02/17 12:43:44;;;;;;;4.60;0.60;;;10.70;99.90;;;;;;4911558;28;20069;-87
2022/02/17 12:46:12;;;;;;;5.93;0.85;;;10.60;99.90;;;;;;4910162;28;20586;-87
2022/02/17 12:48:43;;;;;;;5.20;0.82;;;10.60;99.90;;;;;;4937173;28;20039;-87
2022/02/17 12:51:09;;;;;;;8.98;1.27;;;10.60;99.90;;;;;;4892649;28;20083;-87
2022/02/17 12:53:47;;;;;;;7.43;1.50;;;10.40;99.90;;;;;;4923830;28;20062;-88
2022/02/17 12:56:19;;;;;;;7.95;0.98;;;10.70;99.90;;;;;;4927316;28;20027;-87
2022/02/17 12:58:48;;;;;;;4.65;1.13;;;10.90;99.90;;;;;;4909103;28;20039;-87
2022/02/17 13:01:25;;;;;;;7.03;1.15;;;10.50;99.90;;;;;;4922627;28;20058;-87
2022/02/17 13:03:50;;;;;;;7.28;1.17;;;10.70;99.90;;;;;;4928836;28;20042;-86
2022/02/17 13:06:25;;;;;;;8.30;1.25;;;10.90;99.90;;;;;;4916459;28;20038;-87
2022/02/17 13:09:13;;;;;;;3.80;1.00;;;10.70;99.90;;;;;;4892109;28;20118;-87
2022/02/17 13:12:15;;;;;;;7.00;1.23;;;10.90;99.90;;;;;;4931839;28;20089;-87
2022/02/17 13:14:52;;;;;;;9.02;1.10;;;10.70;99.90;;;;;;4833184;29;20493;-86